Time;durP1;ratioP1;P1;durP2;ratioP2;P2;SDS_P1;SDS_P2;PMS_P1;PMS_P2;Temp;Humidity;BMP_temperature;BMP_pressure;BME280_temperature;BME280_humidity;BME280_pressure;Samples;Min_cycle;Max_cycle;Signal;HPM_P1;HPM_P2
2022/03/20 00:01:21;;;;;;;19.85;11.90;;;;;;;;;;5051835;28;20037;-77
2022/03/20 00:03:47;;;;;;;22.73;13.77;;;;;;;;;;5051548;28;20071;-77
2022/03/20 00:06:13;;;;;;;21.60;12.45;;;;;;;;;;5051383;28;20056;-77
2022/03/20 00:08:40;;;;;;;20.40;12.13;;;;;;;;;;5051103;28;20100;-78
2022/03/20 00:11:09;;;;;;;15.70;10.27;;;;;;;;;;5048700;28;20352;-77
2022/03/20 00:13:36;;;;;;;13.55;9.20;;;;;;;;;;5050887;28;20032;-77
2022/03/20 00:16:05;;;;;;;14.52;9.52;;;;;;;;;;5049956;28;20461;-77
2022/03/20 00:18:31;;;;;;;14.65;9.35;;;;;;;;;;5051050;28;20025;-77
2022/03/20 00:20:58;;;;;;;13.00;9.07;;;;;;;;;;5051051;28;20032;-77
2022/03/20 00:23:24;;;;;;;13.48;8.65;;;;;;;;;;5051185;28;20037;-76
2022/03/20 00:25:51;;;;;;;13.90;9.18;;;;;;;;;;5051525;28;20108;-77
2022/03/20 00:28:18;;;;;;;12.68;8.95;;;;;;;;;;5051681;28;20025;-77
2022/03/20 00:30:45;;;;;;;19.92;12.82;;;;;;;;;;5051376;28;20064;-77
2022/03/20 00:33:11;;;;;;;24.95;14.60;;;;;;;;;;5051899;28;20051;-77
2022/03/20 00:35:38;;;;;;;25.67;14.98;;;;;;;;;;5051393;28;20119;-77
2022/03/20 00:38:05;;;;;;;24.88;14.68;;;;;;;;;;5051667;28;20116;-77
2022/03/20 00:40:31;;;;;;;22.73;14.60;;;;;;;;;;5054657;28;20021;-78
2022/03/20 00:42:57;;;;;;;25.20;16.35;;;;;;;;;;5051413;28;20025;-77
2022/03/20 00:45:24;;;;;;;23.17;16.13;;;;;;;;;;5051424;28;20025;-77
2022/03/20 00:47:50;;;;;;;23.60;13.00;;;;;;;;;;5051270;28;20103;-77
2022/03/20 00:50:16;;;;;;;29.48;15.52;;;;;;;;;;5052226;28;20037;-78
2022/03/20 00:52:43;;;;;;;24.13;13.65;;;;;;;;;;5054764;28;20053;-78
2022/03/20 00:55:09;;;;;;;25.55;14.82;;;;;;;;;;5055136;28;20035;-76
2022/03/20 00:57:36;;;;;;;21.58;12.05;;;;;;;;;;5054765;28;20032;-76
2022/03/20 01:00:02;;;;;;;48.35;22.73;;;;;;;;;;5055011;28;20115;-76
2022/03/20 01:02:28;;;;;;;19.40;12.10;;;;;;;;;;5054953;28;20033;-76
2022/03/20 01:04:54;;;;;;;28.90;15.15;;;;;;;;;;5054666;28;20025;-76
2022/03/20 01:07:21;;;;;;;23.05;16.58;;;;;;;;;;5053757;28;20036;-76
2022/03/20 01:09:47;;;;;;;16.85;10.88;;;;;;;;;;5054410;28;20365;-76
2022/03/20 01:12:16;;;;;;;14.85;10.50;;;;;;;;;;5054689;28;20032;-77
2022/03/20 01:14:47;;;;;;;15.50;10.40;;;;;;;;;;5053487;28;20029;-76
2022/03/20 01:17:13;;;;;;;15.55;10.55;;;;;;;;;;5054599;28;20550;-76
2022/03/20 01:19:40;;;;;;;13.98;9.60;;;;;;;;;;5054951;28;20108;-77
2022/03/20 01:22:07;;;;;;;14.55;9.23;;;;;;;;;;5054863;28;20588;-78
2022/03/20 01:24:34;;;;;;;15.23;9.70;;;;;;;;;;5054687;28;20031;-78
2022/03/20 01:27:00;;;;;;;16.63;9.55;;;;;;;;;;5054722;28;20025;-78
2022/03/20 01:29:27;;;;;;;16.10;9.82;;;;;;;;;;5054881;28;20049;-77
2022/03/20 01:31:53;;;;;;;15.50;10.32;;;;;;;;;;5054628;28;20040;-78
2022/03/20 01:34:19;;;;;;;12.20;8.90;;;;;;;;;;5055210;28;20032;-78
2022/03/20 01:36:46;;;;;;;14.32;8.43;;;;;;;;;;5055009;28;20063;-78
2022/03/20 01:39:12;;;;;;;12.35;8.05;;;;;;;;;;5054905;28;20029;-78
2022/03/20 01:41:38;;;;;;;11.55;8.45;;;;;;;;;;5054463;28;20052;-77
2022/03/20 01:44:04;;;;;;;13.68;8.32;;;;;;;;;;5054847;28;20032;-79
2022/03/20 01:46:33;;;;;;;13.18;8.65;;;;;;;;;;5054894;28;20025;-78
2022/03/20 01:49:00;;;;;;;14.35;9.35;;;;;;;;;;5053894;28;20040;-78
2022/03/20 01:54:13;;;;;;;12.50;8.57;;;;;;;;;;5051524;28;20075;-75
2022/03/20 01:56:46;;;;;;;17.27;9.63;;;;;;;;;;5053010;28;20080;-75
2022/03/20 01:59:12;;;;;;;14.95;10.00;;;;;;;;;;5053305;28;20424;-75
2022/03/20 02:01:38;;;;;;;14.75;9.95;;;;;;;;;;5053118;28;20032;-76
2022/03/20 02:04:05;;;;;;;13.77;9.32;;;;;;;;;;5051822;28;20024;-77
2022/03/20 02:06:32;;;;;;;15.50;10.90;;;;;;;;;;5052878;28;20020;-77
2022/03/20 02:08:59;;;;;;;14.02;10.07;;;;;;;;;;5053059;28;20061;-76
2022/03/20 02:11:25;;;;;;;15.10;9.38;;;;;;;;;;5052814;28;20476;-76
2022/03/20 02:13:52;;;;;;;14.70;9.52;;;;;;;;;;5053022;28;20090;-76
2022/03/20 02:16:18;;;;;;;14.38;9.75;;;;;;;;;;5053006;28;20468;-76
2022/03/20 02:18:44;;;;;;;13.40;9.40;;;;;;;;;;5052334;28;20071;-77
2022/03/20 02:21:10;;;;;;;15.07;9.55;;;;;;;;;;5051279;28;20491;-77
2022/03/20 02:23:36;;;;;;;13.25;9.48;;;;;;;;;;5052497;28;20059;-77
2022/03/20 02:26:03;;;;;;;17.67;11.45;;;;;;;;;;5052661;28;20575;-77
2022/03/20 02:28:30;;;;;;;24.08;11.65;;;;;;;;;;5052500;28;20044;-76
2022/03/20 02:30:56;;;;;;;17.50;10.05;;;;;;;;;;5052407;28;20025;-77
2022/03/20 02:33:27;;;;;;;15.05;8.60;;;;;;;;;;5052540;28;20032;-77
2022/03/20 02:35:54;;;;;;;15.18;9.27;;;;;;;;;;5038838;28;20028;-76
2022/03/20 02:38:20;;;;;;;15.23;9.27;;;;;;;;;;5052454;28;20107;-77
2022/03/20 02:40:46;;;;;;;12.70;8.77;;;;;;;;;;5052094;28;20036;-77
2022/03/20 02:43:13;;;;;;;11.43;7.20;;;;;;;;;;5052293;28;20028;-76
2022/03/20 02:45:39;;;;;;;13.23;8.20;;;;;;;;;;5052088;28;20017;-76
2022/03/20 02:48:06;;;;;;;12.02;7.53;;;;;;;;;;5052261;28;20460;-76
2022/03/20 02:50:33;;;;;;;15.35;8.30;;;;;;;;;;5052216;28;20179;-76
2022/03/20 02:53:13;;;;;;;13.18;7.90;;;;;;;;;;5051981;28;20112;-76
2022/03/20 02:55:44;;;;;;;11.15;8.27;;;;;;;;;;5049489;28;20061;-77
2022/03/20 02:58:11;;;;;;;12.15;8.30;;;;;;;;;;5052303;28;20052;-76
2022/03/20 03:00:39;;;;;;;10.80;7.95;;;;;;;;;;5052088;28;20372;-76
2022/03/20 03:03:08;;;;;;;11.05;8.27;;;;;;;;;;5055256;28;20040;-76
2022/03/20 03:05:35;;;;;;;12.27;7.95;;;;;;;;;;5053229;28;20411;-76
2022/03/20 03:10:57;;;;;;;10.15;6.55;;;;;;;;;;5032794;28;20183;-77
2022/03/20 03:13:29;;;;;;;13.80;7.40;;;;;;;;;;5032198;28;20032;-76
2022/03/20 03:15:56;;;;;;;11.25;6.68;;;;;;;;;;5032415;28;20503;-77
2022/03/20 03:18:23;;;;;;;12.60;7.88;;;;;;;;;;5032554;28;20033;-77
2022/03/20 03:20:49;;;;;;;12.20;8.10;;;;;;;;;;5032394;28;20380;-77
2022/03/20 03:23:16;;;;;;;14.55;8.48;;;;;;;;;;5032240;28;20552;-76
2022/03/20 03:25:42;;;;;;;27.27;13.85;;;;;;;;;;5032475;28;20029;-76
2022/03/20 03:28:09;;;;;;;13.75;7.80;;;;;;;;;;5032211;28;20026;-76
2022/03/20 03:30:39;;;;;;;15.52;9.25;;;;;;;;;;5032564;28;20064;-76
2022/03/20 03:33:05;;;;;;;20.95;18.77;;;;;;;;;;5032236;28;20029;-77
2022/03/20 03:35:44;;;;;;;14.40;11.02;;;;;;;;;;5032457;28;20025;-76
2022/03/20 03:38:14;;;;;;;16.15;9.30;;;;;;;;;;5032337;28;20096;-76
2022/03/20 03:40:41;;;;;;;11.00;7.38;;;;;;;;;;5032170;28;20104;-76
2022/03/20 03:43:07;;;;;;;10.68;7.55;;;;;;;;;;5032286;28;20116;-76
2022/03/20 03:45:34;;;;;;;9.70;7.07;;;;;;;;;;5032359;28;20473;-76
2022/03/20 03:48:01;;;;;;;13.88;7.38;;;;;;;;;;5032020;28;20021;-76
2022/03/20 03:50:28;;;;;;;13.93;8.57;;;;;;;;;;5032186;28;20033;-77
2022/03/20 03:52:54;;;;;;;12.10;7.38;;;;;;;;;;5030767;28;20045;-77
2022/03/20 03:55:20;;;;;;;12.82;7.15;;;;;;;;;;5032263;28;20034;-77
2022/03/20 03:57:47;;;;;;;10.60;6.57;;;;;;;;;;5032040;28;20545;-77
2022/03/20 04:00:13;;;;;;;11.52;7.18;;;;;;;;;;5032018;28;20034;-77
2022/03/20 04:02:39;;;;;;;13.65;7.55;;;;;;;;;;5032144;28;20112;-77
2022/03/20 04:05:06;;;;;;;10.10;6.65;;;;;;;;;;5031908;28;20022;-76
2022/03/20 04:07:33;;;;;;;11.18;7.00;;;;;;;;;;5032285;28;20029;-77
2022/03/20 04:10:01;;;;;;;27.15;13.10;;;;;;;;;;5031879;28;20546;-77
2022/03/20 04:12:28;;;;;;;18.75;11.52;;;;;;;;;;5032244;28;20502;-76
2022/03/20 04:14:57;;;;;;;15.57;9.90;;;;;;;;;;5033188;28;20472;-76
2022/03/20 04:17:23;;;;;;;12.77;9.13;;;;;;;;;;5032528;28;20056;-76
2022/03/20 04:19:49;;;;;;;10.45;8.02;;;;;;;;;;5032114;28;20053;-76
2022/03/20 04:22:18;;;;;;;13.88;8.40;;;;;;;;;;5030554;28;20468;-76
2022/03/20 04:24:44;;;;;;;11.35;8.50;;;;;;;;;;5046490;28;20037;-76
2022/03/20 04:27:14;;;;;;;15.35;8.55;;;;;;;;;;5054035;28;20025;-77
2022/03/20 04:29:40;;;;;;;15.75;10.30;;;;;;;;;;5053979;28;20028;-77
2022/03/20 04:32:07;;;;;;;14.07;8.15;;;;;;;;;;5054718;28;20097;-77
2022/03/20 04:34:35;;;;;;;13.52;7.85;;;;;;;;;;5055150;28;20447;-76
2022/03/20 04:37:05;;;;;;;15.10;8.00;;;;;;;;;;5055260;28;20387;-76
2022/03/20 04:39:32;;;;;;;16.95;9.07;;;;;;;;;;5055533;28;20132;-77
2022/03/20 04:41:58;;;;;;;12.70;7.80;;;;;;;;;;5055186;28;20094;-76
2022/03/20 04:44:24;;;;;;;11.65;7.50;;;;;;;;;;5055323;28;20025;-76
2022/03/20 04:46:50;;;;;;;12.88;8.68;;;;;;;;;;5055067;28;20384;-77
2022/03/20 05:00:15;;;;;;;11.95;7.93;;;;;;;;;;5055015;28;20450;-77
2022/03/20 05:02:42;;;;;;;10.60;6.82;;;;;;;;;;5055196;28;20037;-77
2022/03/20 05:05:11;;;;;;;11.75;7.65;;;;;;;;;;5054781;28;20029;-77
2022/03/20 05:07:37;;;;;;;11.80;7.53;;;;;;;;;;5054953;28;20078;-77
2022/03/20 05:15:36;;;;;;;11.57;7.35;;;;;;;;;;5054876;28;20040;-77
2022/03/20 05:18:02;;;;;;;10.88;6.88;;;;;;;;;;5054869;28;20108;-77
2022/03/20 05:20:28;;;;;;;11.77;7.75;;;;;;;;;;5054448;28;20025;-77
2022/03/20 05:22:54;;;;;;;11.15;7.65;;;;;;;;;;5054718;28;20047;-77
2022/03/20 05:25:21;;;;;;;13.23;9.43;;;;;;;;;;5055146;28;20480;-77
2022/03/20 05:27:47;;;;;;;15.82;11.20;;;;;;;;;;5055858;28;20056;-77
2022/03/20 05:30:13;;;;;;;18.27;10.52;;;;;;;;;;5054627;28;20053;-77
2022/03/20 05:32:40;;;;;;;16.75;10.43;;;;;;;;;;5054163;28;20024;-77
2022/03/20 05:35:08;;;;;;;24.10;12.60;;;;;;;;;;5054526;28;20068;-77
2022/03/20 05:37:35;;;;;;;22.83;12.80;;;;;;;;;;5053723;28;20060;-77
2022/03/20 05:40:01;;;;;;;22.80;15.43;;;;;;;;;;5054454;28;20543;-77
2022/03/20 05:42:27;;;;;;;21.65;14.45;;;;;;;;;;5053899;28;20039;-77
2022/03/20 05:44:53;;;;;;;17.73;10.90;;;;;;;;;;5054228;28;20103;-77
2022/03/20 05:47:19;;;;;;;17.58;10.25;;;;;;;;;;5054277;28;20387;-77
2022/03/20 05:49:46;;;;;;;20.17;12.05;;;;;;;;;;5054011;28;20025;-77
2022/03/20 05:52:13;;;;;;;17.15;11.30;;;;;;;;;;5054100;28;20384;-77
2022/03/20 05:54:39;;;;;;;14.32;10.30;;;;;;;;;;5053856;28;20037;-77
2022/03/20 05:59:53;;;;;;;14.85;9.77;;;;;;;;;;5054368;28;20043;-77
2022/03/20 06:02:20;;;;;;;14.55;9.32;;;;;;;;;;5053503;28;20116;-77
2022/03/20 06:04:46;;;;;;;15.52;10.77;;;;;;;;;;5053961;28;20020;-77
2022/03/20 06:07:12;;;;;;;16.92;12.57;;;;;;;;;;5053822;28;20025;-77
2022/03/20 06:09:38;;;;;;;18.17;12.68;;;;;;;;;;5053799;28;20039;-77
2022/03/20 06:12:05;;;;;;;16.15;12.60;;;;;;;;;;5053755;28;20460;-78
2022/03/20 06:14:34;;;;;;;26.10;16.83;;;;;;;;;;5053510;28;20021;-77
2022/03/20 06:17:01;;;;;;;22.98;14.95;;;;;;;;;;5053869;28;20031;-77
2022/03/20 06:19:27;;;;;;;17.52;10.25;;;;;;;;;;5053334;28;20104;-76
2022/03/20 06:21:53;;;;;;;12.57;8.55;;;;;;;;;;5053368;28;20460;-77
2022/03/20 06:24:19;;;;;;;20.20;11.77;;;;;;;;;;5053312;28;20025;-77
2022/03/20 06:26:45;;;;;;;23.20;14.73;;;;;;;;;;5053325;28;20384;-77
2022/03/20 06:29:11;;;;;;;14.07;9.88;;;;;;;;;;5053441;28;20032;-77
2022/03/20 06:31:37;;;;;;;16.80;9.50;;;;;;;;;;5053202;28;20031;-77
2022/03/20 06:34:04;;;;;;;12.82;8.40;;;;;;;;;;5053492;28;20590;-77
2022/03/20 06:36:31;;;;;;;18.98;9.48;;;;;;;;;;5053728;28;20373;-78
2022/03/20 06:38:57;;;;;;;15.50;8.80;;;;;;;;;;5052584;28;20040;-77
2022/03/20 06:41:23;;;;;;;15.55;10.25;;;;;;;;;;5052802;28;20036;-77
2022/03/20 06:43:50;;;;;;;11.32;7.63;;;;;;;;;;5053196;28;20025;-77
2022/03/20 06:46:16;;;;;;;18.63;10.75;;;;;;;;;;5053124;28;20107;-77
2022/03/20 06:48:43;;;;;;;23.45;12.10;;;;;;;;;;5052299;28;20476;-79
2022/03/20 06:51:09;;;;;;;10.05;7.13;;;;;;;;;;5053315;28;20029;-77
2022/03/20 06:53:35;;;;;;;20.90;10.43;;;;;;;;;;5052589;28;20072;-78
2022/03/20 06:56:01;;;;;;;15.98;8.45;;;;;;;;;;5052936;28;20033;-78
2022/03/20 06:58:28;;;;;;;10.10;6.18;;;;;;;;;;5052544;28;20020;-79
2022/03/20 07:00:54;;;;;;;20.58;10.38;;;;;;;;;;5052741;28;20028;-78
2022/03/20 07:03:20;;;;;;;7.57;5.70;;;;;;;;;;5052892;28;20025;-77
2022/03/20 07:05:47;;;;;;;11.13;8.20;;;;;;;;;;5051444;28;20498;-77
2022/03/20 07:08:13;;;;;;;17.17;7.25;;;;;;;;;;5052543;28;20021;-77
2022/03/20 07:10:39;;;;;;;9.88;6.07;;;;;;;;;;5052404;28;20063;-77
2022/03/20 07:15:52;;;;;;;11.18;6.40;;;;;;;;;;5052821;28;20087;-78
2022/03/20 07:18:20;;;;;;;12.38;7.78;;;;;;;;;;5052198;28;20028;-78
2022/03/20 07:20:47;;;;;;;8.07;5.35;;;;;;;;;;5052309;28;20029;-78
2022/03/20 07:23:13;;;;;;;7.70;4.97;;;;;;;;;;5052373;28;20033;-78
2022/03/20 07:31:10;;;;;;;12.63;7.72;;;;;;;;;;5052607;28;20074;-77
2022/03/20 07:33:37;;;;;;;9.45;6.53;;;;;;;;;;5052183;28;20025;-77
2022/03/20 07:36:04;;;;;;;9.15;5.43;;;;;;;;;;5051998;28;20025;-77
2022/03/20 07:38:30;;;;;;;5.65;4.45;;;;;;;;;;5052286;28;20154;-78
2022/03/20 07:40:56;;;;;;;7.20;5.78;;;;;;;;;;5051834;28;20380;-78
2022/03/20 07:43:22;;;;;;;7.25;4.60;;;;;;;;;;5052228;28;20040;-78
2022/03/20 07:45:50;;;;;;;7.05;5.00;;;;;;;;;;5051889;28;20029;-77
2022/03/20 07:48:16;;;;;;;8.63;6.43;;;;;;;;;;5052457;28;20032;-78
2022/03/20 07:50:42;;;;;;;8.70;5.78;;;;;;;;;;5052560;28;20025;-77
2022/03/20 07:53:08;;;;;;;7.18;4.90;;;;;;;;;;5051915;28;20064;-77
2022/03/20 07:55:34;;;;;;;6.50;4.25;;;;;;;;;;5051867;28;20025;-78
2022/03/20 07:58:02;;;;;;;8.73;5.60;;;;;;;;;;5051881;28;20083;-78
2022/03/20 08:00:28;;;;;;;9.70;6.50;;;;;;;;;;5052785;28;20756;-78
2022/03/20 08:02:54;;;;;;;8.73;6.25;;;;;;;;;;5055818;28;20037;-78
2022/03/20 08:05:20;;;;;;;12.13;7.70;;;;;;;;;;5054944;28;20480;-77
2022/03/20 08:07:47;;;;;;;7.88;5.40;;;;;;;;;;5055948;28;20025;-78
2022/03/20 08:10:13;;;;;;;7.20;4.50;;;;;;;;;;5055855;28;20029;-77
2022/03/20 08:12:40;;;;;;;4.63;3.78;;;;;;;;;;5055835;28;20378;-78
2022/03/20 08:15:07;;;;;;;7.47;4.85;;;;;;;;;;5055537;28;20032;-78
2022/03/20 08:17:42;;;;;;;5.90;4.32;;;;;;;;;;5055841;28;20028;-78
2022/03/20 08:20:09;;;;;;;12.35;6.90;;;;;;;;;;5055743;28;20025;-78
2022/03/20 08:22:37;;;;;;;12.52;7.68;;;;;;;;;;5055650;28;20079;-77
2022/03/20 08:25:03;;;;;;;6.70;4.82;;;;;;;;;;5055371;28;20036;-78
2022/03/20 08:27:29;;;;;;;8.35;5.28;;;;;;;;;;5055651;28;20099;-78
2022/03/20 08:29:57;;;;;;;5.78;4.00;;;;;;;;;;5055469;28;20788;-78
2022/03/20 08:32:24;;;;;;;7.10;4.65;;;;;;;;;;5055521;28;20535;-78
2022/03/20 08:34:52;;;;;;;7.32;5.70;;;;;;;;;;5055254;28;20366;-78
2022/03/20 08:37:18;;;;;;;7.07;5.57;;;;;;;;;;5055434;28;20055;-78
2022/03/20 08:39:44;;;;;;;8.35;5.75;;;;;;;;;;5055259;28;20036;-77
2022/03/20 08:42:10;;;;;;;7.30;5.22;;;;;;;;;;5055238;28;20147;-78
2022/03/20 08:44:36;;;;;;;12.93;8.60;;;;;;;;;;5055374;28;20107;-78
2022/03/20 08:47:03;;;;;;;6.80;4.45;;;;;;;;;;5055113;28;20017;-77
2022/03/20 08:49:29;;;;;;;7.50;4.72;;;;;;;;;;5055418;28;20025;-78
2022/03/20 08:51:55;;;;;;;7.15;4.40;;;;;;;;;;5054941;28;20476;-78
2022/03/20 08:54:22;;;;;;;6.78;4.53;;;;;;;;;;5055001;28;20091;-78
2022/03/20 08:56:48;;;;;;;6.00;3.92;;;;;;;;;;5055053;28;20041;-77
2022/03/20 08:59:15;;;;;;;7.45;4.88;;;;;;;;;;5055012;28;20032;-78
2022/03/20 09:01:41;;;;;;;9.85;5.65;;;;;;;;;;5055789;28;20059;-78
2022/03/20 09:04:07;;;;;;;5.15;3.50;;;;;;;;;;5054815;28;20029;-78
2022/03/20 09:06:33;;;;;;;7.13;3.80;;;;;;;;;;5055007;28;20028;-78
2022/03/20 09:08:59;;;;;;;6.35;3.53;;;;;;;;;;5054772;28;20044;-78
2022/03/20 09:11:25;;;;;;;5.43;3.30;;;;;;;;;;5054154;28;20029;-78
2022/03/20 09:13:51;;;;;;;5.45;3.83;;;;;;;;;;5054783;28;20048;-78
2022/03/20 09:19:04;;;;;;;8.23;4.18;;;;;;;;;;5054481;28;20078;-78
2022/03/20 09:21:34;;;;;;;6.80;4.57;;;;;;;;;;5054589;28;20044;-78
2022/03/20 09:24:01;;;;;;;5.68;3.65;;;;;;;;;;5054564;28;20033;-78
2022/03/20 09:26:28;;;;;;;3.53;2.38;;;;;;;;;;5054664;28;20021;-78
2022/03/20 09:28:54;;;;;;;4.47;2.70;;;;;;;;;;5054296;28;20035;-78
2022/03/20 09:31:21;;;;;;;7.13;3.78;;;;;;;;;;5054531;28;20043;-78
2022/03/20 09:33:48;;;;;;;4.75;2.88;;;;;;;;;;5054159;28;20447;-78
2022/03/20 09:36:15;;;;;;;6.05;3.22;;;;;;;;;;5054794;28;20413;-78
2022/03/20 09:38:41;;;;;;;5.82;3.88;;;;;;;;;;5054617;28;20465;-78
2022/03/20 09:41:08;;;;;;;7.43;3.72;;;;;;;;;;5054150;28;20051;-78
2022/03/20 09:43:39;;;;;;;6.45;3.80;;;;;;;;;;5054301;28;20395;-77
2022/03/20 09:46:05;;;;;;;6.43;4.47;;;;;;;;;;5054115;28;20384;-78
2022/03/20 09:48:31;;;;;;;6.22;3.55;;;;;;;;;;5054168;28;20150;-78
2022/03/20 09:50:58;;;;;;;7.25;4.65;;;;;;;;;;5053783;28;20025;-78
2022/03/20 09:53:25;;;;;;;5.22;3.72;;;;;;;;;;5053914;28;20420;-78
2022/03/20 09:55:54;;;;;;;4.43;2.80;;;;;;;;;;5053894;28;20059;-79
2022/03/20 09:58:23;;;;;;;5.07;3.50;;;;;;;;;;5054172;28;20037;-78
2022/03/20 10:00:49;;;;;;;5.63;3.60;;;;;;;;;;5053857;28;20032;-78
2022/03/20 10:03:20;;;;;;;9.02;5.45;;;;;;;;;;5054083;28;20059;-77
2022/03/20 10:06:02;;;;;;;6.05;3.97;;;;;;;;;;5053818;28;20036;-79
2022/03/20 10:08:28;;;;;;;10.52;6.22;;;;;;;;;;5052665;28;20419;-78
2022/03/20 10:11:12;;;;;;;5.05;3.38;;;;;;;;;;5053829;28;20074;-79
2022/03/20 10:13:38;;;;;;;5.25;3.40;;;;;;;;;;5053737;28;20095;-76
2022/03/20 10:16:24;;;;;;;4.95;3.60;;;;;;;;;;5053596;28;20079;-75
2022/03/20 10:18:51;;;;;;;4.53;3.15;;;;;;;;;;5053285;28;20082;-76
2022/03/20 10:21:19;;;;;;;4.68;3.40;;;;;;;;;;5053327;28;20117;-77
2022/03/20 10:23:46;;;;;;;5.05;3.53;;;;;;;;;;5052440;28;20076;-78
2022/03/20 10:26:12;;;;;;;6.53;3.72;;;;;;;;;;5053143;28;20021;-77
2022/03/20 10:28:39;;;;;;;6.30;4.03;;;;;;;;;;5053492;28;20025;-77
2022/03/20 10:31:07;;;;;;;6.15;4.22;;;;;;;;;;5053085;28;20028;-77
2022/03/20 10:33:40;;;;;;;8.60;4.82;;;;;;;;;;5053473;28;20024;-77
2022/03/20 10:36:09;;;;;;;5.40;3.97;;;;;;;;;;5052916;28;20388;-77
2022/03/20 10:38:38;;;;;;;8.55;4.22;;;;;;;;;;5052283;28;20025;-77
2022/03/20 10:41:18;;;;;;;6.47;4.20;;;;;;;;;;5052880;28;20384;-77
2022/03/20 10:43:45;;;;;;;5.65;3.42;;;;;;;;;;5052958;28;20037;-77
2022/03/20 10:46:17;;;;;;;4.72;3.30;;;;;;;;;;5053235;28;20061;-77
2022/03/20 10:48:46;;;;;;;5.28;3.38;;;;;;;;;;5052795;28;20032;-77
2022/03/20 10:51:12;;;;;;;7.47;5.20;;;;;;;;;;5052922;28;20045;-77
2022/03/20 10:54:01;;;;;;;5.82;4.15;;;;;;;;;;5053012;28;20089;-77
2022/03/20 10:56:27;;;;;;;7.47;4.50;;;;;;;;;;5052539;28;20476;-77
2022/03/20 10:58:53;;;;;;;4.65;3.75;;;;;;;;;;5053022;28;20037;-77
2022/03/20 11:01:33;;;;;;;6.85;3.78;;;;;;;;;;5052844;28;20083;-77
2022/03/20 11:04:00;;;;;;;4.53;3.10;;;;;;;;;;5052673;28;20472;-77
2022/03/20 11:06:26;;;;;;;3.42;2.63;;;;;;;;;;5052613;28;20033;-78
2022/03/20 11:08:52;;;;;;;5.35;3.10;;;;;;;;;;5052717;28;20100;-79
2022/03/20 11:11:19;;;;;;;5.60;3.22;;;;;;;;;;5052575;28;20025;-78
2022/03/20 11:13:48;;;;;;;4.47;3.30;;;;;;;;;;5051350;28;20033;-77
2022/03/20 11:16:15;;;;;;;4.78;2.70;;;;;;;;;;5052316;28;20032;-78
2022/03/20 11:18:42;;;;;;;4.53;2.92;;;;;;;;;;5052756;28;20122;-78
2022/03/20 11:21:10;;;;;;;5.28;3.00;;;;;;;;;;5052422;28;20029;-79
2022/03/20 11:23:37;;;;;;;6.68;4.28;;;;;;;;;;5052492;28;20029;-78
2022/03/20 11:26:03;;;;;;;6.25;4.35;;;;;;;;;;5052418;28;20021;-78
2022/03/20 11:28:32;;;;;;;8.13;5.18;;;;;;;;;;5052118;28;20028;-77
2022/03/20 11:30:59;;;;;;;15.57;5.47;;;;;;;;;;5052448;28;20484;-77
2022/03/20 11:33:25;;;;;;;5.05;3.53;;;;;;;;;;5052126;28;20059;-77
2022/03/20 11:35:51;;;;;;;3.50;2.60;;;;;;;;;;5051821;28;20496;-78
2022/03/20 11:38:19;;;;;;;4.32;2.83;;;;;;;;;;5052241;28;20059;-78
2022/03/20 11:41:08;;;;;;;5.10;3.25;;;;;;;;;;5052392;28;20048;-78
2022/03/20 11:43:35;;;;;;;4.75;3.60;;;;;;;;;;5049299;28;20106;-77
2022/03/20 11:46:28;;;;;;;9.55;5.00;;;;;;;;;;5052013;28;20065;-78
2022/03/20 11:49:12;;;;;;;6.85;4.38;;;;;;;;;;5052024;28;20112;-78
2022/03/20 11:51:57;;;;;;;5.72;3.75;;;;;;;;;;5052505;28;20029;-77
2022/03/20 11:54:42;;;;;;;4.72;3.58;;;;;;;;;;5051688;28;20060;-78
2022/03/20 11:57:27;;;;;;;6.35;3.53;;;;;;;;;;5051736;28;20040;-77
2022/03/20 11:59:54;;;;;;;;;;;;;;;;;;5052118;28;20109;-77
2022/03/20 12:02:24;;;;;;;5.50;3.00;;;;;;;;;;5052037;28;20284;-77
2022/03/20 12:05:04;;;;;;;7.47;5.00;;;;;;;;;;5051563;28;20025;-77
2022/03/20 12:07:41;;;;;;;4.78;3.33;;;;;;;;;;5051724;28;20032;-78
2022/03/20 12:10:27;;;;;;;4.45;3.10;;;;;;;;;;5051925;28;20494;-77
2022/03/20 12:13:11;;;;;;;5.65;2.78;;;;;;;;;;5048276;28;20065;-77
2022/03/20 12:15:44;;;;;;;6.47;3.45;;;;;;;;;;5052061;28;20028;-78
2022/03/20 12:18:11;;;;;;;4.43;3.60;;;;;;;;;;5051913;28;20029;-78
2022/03/20 12:21:02;;;;;;;7.47;5.05;;;;;;;;;;5051823;28;20528;-77
2022/03/20 12:26:36;;;;;;;4.50;3.03;;;;;;;;;;5051488;28;20498;-77
2022/03/20 12:29:20;;;;;;;7.32;3.70;;;;;;;;;;5051510;28;20028;-77
2022/03/20 12:32:05;;;;;;;10.40;6.45;;;;;;;;;;5051633;28;20032;-78
2022/03/20 12:34:31;;;;;;;6.30;4.22;;;;;;;;;;5051487;28;20025;-77
2022/03/20 12:37:16;;;;;;;4.18;2.72;;;;;;;;;;5051634;28;20021;-78
2022/03/20 12:40:01;;;;;;;10.55;6.75;;;;;;;;;;5051773;28;20021;-78
2022/03/20 12:42:27;;;;;;;6.40;4.60;;;;;;;;;;5051657;28;20095;-77
2022/03/20 12:44:53;;;;;;;4.82;3.55;;;;;;;;;;5051576;28;20050;-77
2022/03/20 12:47:20;;;;;;;4.05;2.97;;;;;;;;;;5051373;28;20035;-77
2022/03/20 12:49:53;;;;;;;3.97;2.50;;;;;;;;;;5055393;28;20033;-77
2022/03/20 12:52:19;;;;;;;3.17;2.20;;;;;;;;;;5055024;28;20029;-77
2022/03/20 12:55:04;;;;;;;3.78;2.78;;;;;;;;;;5055206;28;20036;-77
2022/03/20 12:57:48;;;;;;;5.15;3.28;;;;;;;;;;5055416;28;20048;-78
2022/03/20 13:00:19;;;;;;;14.35;7.85;;;;;;;;;;5055206;28;20488;-77
2022/03/20 13:02:59;;;;;;;5.57;3.42;;;;;;;;;;5056074;28;20472;-78
2022/03/20 13:05:26;;;;;;;4.22;3.38;;;;;;;;;;5055110;28;20031;-78
2022/03/20 13:07:53;;;;;;;4.78;3.33;;;;;;;;;;5055355;28;20025;-78
2022/03/20 13:10:25;;;;;;;6.78;3.95;;;;;;;;;;5055777;28;20025;-77
2022/03/20 13:12:52;;;;;;;5.68;3.15;;;;;;;;;;5054729;28;20036;-77
2022/03/20 13:15:27;;;;;;;6.25;3.75;;;;;;;;;;5054419;28;20044;-78
2022/03/20 13:17:53;;;;;;;5.72;3.92;;;;;;;;;;5054729;28;20025;-78
2022/03/20 13:20:21;;;;;;;6.03;3.58;;;;;;;;;;5054788;28;20410;-77
2022/03/20 13:22:47;;;;;;;6.07;4.40;;;;;;;;;;5054552;28;20048;-77
2022/03/20 13:25:17;;;;;;;6.30;3.95;;;;;;;;;;5054160;28;20017;-77
2022/03/20 13:27:46;;;;;;;5.28;3.38;;;;;;;;;;5054553;28;20036;-77
2022/03/20 13:30:13;;;;;;;4.72;3.70;;;;;;;;;;5054108;28;20488;-78
2022/03/20 13:32:39;;;;;;;4.80;3.20;;;;;;;;;;5054546;28;20021;-77
2022/03/20 13:35:05;;;;;;;5.05;3.78;;;;;;;;;;5053975;28;20029;-78
2022/03/20 13:37:32;;;;;;;7.18;4.47;;;;;;;;;;5054259;28;20392;-78
2022/03/20 13:39:58;;;;;;;4.47;3.33;;;;;;;;;;5054012;28;20028;-77
2022/03/20 13:42:29;;;;;;;8.43;6.57;;;;;;;;;;5053838;28;20392;-77
2022/03/20 13:44:57;;;;;;;7.85;4.68;;;;;;;;;;5053931;28;20472;-78
2022/03/20 13:47:24;;;;;;;4.78;2.70;;;;;;;;;;5054084;28;20021;-77
2022/03/20 13:49:51;;;;;;;5.97;3.45;;;;;;;;;;5054058;28;20029;-77
2022/03/20 13:52:25;;;;;;;4.82;3.30;;;;;;;;;;5053618;28;20021;-78
2022/03/20 13:55:04;;;;;;;10.20;6.03;;;;;;;;;;5053950;28;20049;-78
2022/03/20 13:57:30;;;;;;;31.60;20.10;;;;;;;;;;5053913;28;20360;-77
2022/03/20 14:00:08;;;;;;;8.00;4.30;;;;;;;;;;5053511;28;20017;-78
2022/03/20 14:02:39;;;;;;;6.95;5.22;;;;;;;;;;5053747;28;20468;-78
2022/03/20 14:05:10;;;;;;;6.32;4.20;;;;;;;;;;5053688;28;20025;-77
2022/03/20 14:07:37;;;;;;;7.70;4.68;;;;;;;;;;5053564;28;20025;-78
2022/03/20 14:10:15;;;;;;;6.13;4.53;;;;;;;;;;5053817;28;20036;-78
2022/03/20 14:12:42;;;;;;;8.07;4.15;;;;;;;;;;5053688;28;20025;-78
2022/03/20 14:15:11;;;;;;;12.70;7.38;;;;;;;;;;5053581;28;20159;-77
2022/03/20 14:17:40;;;;;;;10.23;7.88;;;;;;;;;;5053395;28;20028;-77
2022/03/20 14:20:10;;;;;;;6.10;3.95;;;;;;;;;;5054047;28;20048;-77
2022/03/20 14:22:54;;;;;;;6.82;4.88;;;;;;;;;;5054114;28;20044;-77
2022/03/20 14:25:30;;;;;;;5.95;3.35;;;;;;;;;;5053372;28;20017;-77
2022/03/20 14:28:00;;;;;;;7.32;4.13;;;;;;;;;;5053106;28;20033;-78
2022/03/20 14:41:30;;;;;;;6.43;3.50;;;;;;;;;;5052983;28;20184;-77
2022/03/20 14:44:06;;;;;;;4.50;3.30;;;;;;;;;;5052757;28;20033;-78
2022/03/20 14:46:33;;;;;;;9.48;4.32;;;;;;;;;;5052107;28;20503;-77
2022/03/20 14:48:59;;;;;;;7.53;4.40;;;;;;;;;;5052687;28;20447;-78
2022/03/20 14:51:26;;;;;;;5.43;3.58;;;;;;;;;;5053037;28;20033;-77
2022/03/20 14:53:52;;;;;;;5.30;3.35;;;;;;;;;;5052427;28;20098;-78
2022/03/20 14:56:18;;;;;;;4.03;3.30;;;;;;;;;;5052710;28;20094;-78
2022/03/20 14:58:45;;;;;;;5.13;3.38;;;;;;;;;;5052690;28;20063;-78
2022/03/20 15:01:11;;;;;;;6.07;4.20;;;;;;;;;;5052528;28;20021;-77
2022/03/20 15:03:37;;;;;;;5.03;3.22;;;;;;;;;;5052660;28;20017;-77
2022/03/20 15:06:04;;;;;;;4.28;3.50;;;;;;;;;;5052452;28;20498;-77
2022/03/20 15:14:01;;;;;;;6.70;4.95;;;;;;;;;;5052935;28;20039;-78
2022/03/20 15:16:27;;;;;;;8.65;5.15;;;;;;;;;;5052083;28;20473;-77
2022/03/20 15:18:54;;;;;;;12.05;6.88;;;;;;;;;;5052372;28;20136;-77
2022/03/20 15:21:20;;;;;;;12.43;6.70;;;;;;;;;;5052143;28;20037;-77
2022/03/20 15:23:47;;;;;;;12.75;8.73;;;;;;;;;;5052373;28;20029;-77
2022/03/20 15:26:13;;;;;;;6.53;4.50;;;;;;;;;;5052449;28;20361;-77
2022/03/20 15:28:39;;;;;;;7.30;4.22;;;;;;;;;;5052306;28;20021;-77
2022/03/20 15:31:06;;;;;;;6.88;4.15;;;;;;;;;;5052335;28;20032;-77
2022/03/20 15:33:50;;;;;;;7.00;4.88;;;;;;;;;;5052170;28;20028;-81
2022/03/20 15:36:19;;;;;;;;;;;;;;;;;;5052669;28;20048;-78